createdAt,value
2019-03-26T00:08:06.058Z,7.86
2019-03-26T00:23:39.145Z,7.44
2019-03-26T00:39:13.114Z,8.00
2019-03-26T00:54:46.535Z,8.39
2019-03-26T01:10:20.762Z,8.48
2019-03-26T01:25:53.614Z,8.29
2019-03-26T01:41:26.453Z,8.66
2019-03-26T01:56:59.519Z,9.01
2019-03-26T02:12:32.495Z,8.77
2019-03-26T02:28:05.679Z,8.15
2019-03-26T02:43:38.638Z,7.69
2019-03-26T02:59:12.115Z,7.54
2019-03-26T03:14:45.397Z,7.01
2019-03-26T03:30:18.139Z,6.70
2019-03-26T03:45:51.868Z,6.68
2019-03-26T04:01:24.846Z,6.35
2019-03-26T04:16:57.946Z,6.09
2019-03-26T04:32:31.570Z,5.97
2019-03-26T04:48:04.617Z,6.29
2019-03-26T05:03:37.352Z,6.01
2019-03-26T05:19:10.430Z,5.90
2019-03-26T05:34:43.276Z,6.05
2019-03-26T05:50:16.728Z,6.43
2019-03-26T06:05:49.565Z,7.33
2019-03-26T06:21:22.708Z,7.93
2019-03-26T06:36:55.725Z,9.36
2019-03-26T06:52:28.486Z,10.78
2019-03-26T07:08:01.558Z,10.21
2019-03-26T07:23:34.936Z,9.81
2019-03-26T07:39:08.183Z,11.73
2019-03-26T07:54:41.337Z,13.38
2019-03-26T08:10:14.662Z,13.23
2019-03-26T08:25:47.755Z,11.71
2019-03-26T08:40:51.311Z,11.72
2019-03-26T08:55:53.975Z,11.96
2019-03-26T09:10:56.597Z,11.22
2019-03-26T09:26:00.027Z,11.43
2019-03-26T09:41:02.640Z,11.83
2019-03-26T09:56:07.557Z,11.73
2019-03-26T10:11:11.701Z,11.99
2019-03-26T10:26:14.316Z,11.73
2019-03-26T10:41:18.871Z,11.99
2019-03-26T10:56:21.705Z,12.39
2019-03-26T11:11:24.339Z,11.72
2019-03-26T11:26:29.278Z,10.44
2019-03-26T11:41:32.875Z,10.70
2019-03-26T11:56:37.277Z,9.68
2019-03-26T12:11:40.656Z,8.79
2019-03-26T12:26:44.445Z,7.94
2019-03-26T12:41:46.990Z,6.88
2019-03-26T12:56:52.230Z,6.54
2019-03-26T13:11:56.936Z,6.61
2019-03-26T13:27:30.476Z,7.13
2019-03-26T13:43:03.646Z,8.17
2019-03-26T13:58:36.969Z,9.00
2019-03-26T14:14:09.713Z,9.93
2019-03-26T14:29:42.507Z,10.98
2019-03-26T14:45:15.457Z,10.33
2019-03-26T15:00:48.857Z,10.49
2019-03-26T15:16:22.131Z,9.13
2019-03-26T15:31:55.458Z,8.35
2019-03-26T15:47:29.093Z,8.49
2019-03-26T16:03:02.629Z,8.67
2019-03-26T16:18:35.618Z,8.46
2019-03-26T16:34:08.565Z,8.62
2019-03-26T16:49:42.023Z,8.33
2019-03-26T17:05:14.971Z,8.13
2019-03-26T17:20:47.545Z,7.96
2019-03-26T17:36:21.084Z,7.71
2019-03-26T17:51:54.662Z,7.60
2019-03-26T18:07:27.898Z,7.54
2019-03-26T18:23:01.056Z,7.37
2019-03-26T18:38:35.224Z,7.23
2019-03-26T18:54:08.099Z,7.04
2019-03-26T19:09:41.022Z,6.81
2019-03-26T19:25:14.067Z,6.56
2019-03-26T19:40:47.179Z,6.41
2019-03-26T19:56:20.558Z,6.35
2019-03-26T20:11:53.415Z,5.92
2019-03-26T20:27:27.363Z,5.67
2019-03-26T20:43:00.937Z,5.32
2019-03-26T20:58:34.552Z,5.20
2019-03-26T21:14:07.774Z,5.16
2019-03-26T21:29:40.829Z,5.18
2019-03-26T21:45:13.697Z,5.29
2019-03-26T22:00:46.874Z,5.43
2019-03-26T22:16:20.246Z,5.49
2019-03-26T22:31:53.667Z,5.45
2019-03-26T22:47:26.508Z,5.50
2019-03-26T23:02:59.188Z,5.51
2019-03-26T23:18:32.113Z,5.46
2019-03-26T23:34:05.426Z,5.32
2019-03-26T23:49:38.567Z,5.22
